Emmett, MI (48022)

3:34 AM EDT on July 29, 2016 (GMT -0400)
capac,mi | | Change Station
Active Advisory: Beach Hazard Statement

Elev 833 ft 43.03 °N, 82.93 °W | Updated 0 second ago

Clear
Clear
65.1 °F
Feels Like 65.1 °F
N
4.0
Wind Variable Wind from NNW
Gusts 5.0 mph

Today
High -- | Low -- °F
--% Chance of Precip.
Yesterday
High -- | Low -- °F
Precip. -- in
Pressure 29.94 in
Visibility 10.0 miles
Clouds Clear
Dew Point 63 °F
Humidity 94%
Rainfall 0.00 in
Snow Depth Not available.
6:19 AM 8:55 PM
Waning Crescent, 24% visible
METAR KPHN 290722Z AUTO 00000KT 10SM CLR 18/18 A2994 RMK AO2
Pressure 29.94 in
Visibility 10.0 miles
Clouds Clear
Dew Point 63 °F
Humidity 94%
Rainfall 0.00 in
Snow Depth Not available.
6:19 AM 8:55 PM
Waning Crescent, 24% visible
METAR KPHN 290722Z AUTO 00000KT 10SM CLR 18/18 A2994 RMK AO2

10-Day Weather Forecast

Almanac

Astronomy

Jul. 29, 2016 Rise Set
Actual Time
Civil Twilight
Nautical Twilight
Astronomical Twilight
Moon
Length of Visible Light
Length of Day
Tomorrow will be .
, % of the Moon is Illuminated

Today's Extremes

State Highs State Lows

Community

WunderPhotos

Upload Photos

1,928,302 photos uploaded!

WunderBlog® & News

Nearby

Air Quality

  Air Quality AQ Index Pollutant
Not available.

Snow Depth

Station Depth Elevation

Earthquake Activity

City Distance Mag. Time & Date
Minimum magnitude displayed is 2.5.

Coastal Water Temperatures

Place Temperature

Stations

Nearby Weather Stations

Station Location Temp. Windchill Dew Point Humidity Wind Precip. Elev Updated Type
                   

Watches & Warnings

Beach Hazard Statement
Issued: 9:30 PM EDT Jul. 28, 2016 – National Weather Service

... Beach hazards statement in effect from 8 am EDT Friday through
Friday evening...
... Beach hazards statement is cancelled for this evening...

The National Weather Service in Detroit/Pontiac has issued a
beach hazards statement... which is in effect from 8 am EDT Friday
through Friday evening.

* High wave action and dangerous swimming conditions expected.

* Strong structural currents... expected.

* Location... beaches from Linwood Beach to Port Huron
including...

Linwood Beach... Caseville... Sand Point... Port Crescent State
Park... Port Austin... Harbor Beach... Port Sanilac... Lexington...
Birch Beach... Lakeport... Fort Gratiot... Port Huron...

* overview/potential impacts... northeast winds will gust to 20
knots again on Friday. This increased onshore flow will create
high wave conditions that will produce dangerous swimming
conditions on area beaches.

Precautionary/preparedness actions...

To learn more about dangerous waves and currents please visit
dangerouscurrents.Org (all lower case)

Children should not enter the water unsupervised and without a
certified flotation device. Caution should be used when in or
near the water. Pay attention to flags and signs posted near
beach access points and lifeguard stations.